createdAt,value
2024-02-08T06:30:49.935Z,85.42
2024-02-08T06:33:27.058Z,86.14
2024-02-08T06:35:58.587Z,86.82
2024-02-08T06:38:53.337Z,87.12
2024-02-08T06:41:47.132Z,87.65
2024-02-08T06:44:33.468Z,88.20
2024-02-08T06:47:19.985Z,88.32
2024-02-08T06:50:06.282Z,88.07
2024-02-08T06:52:53.034Z,88.50
2024-02-08T06:55:39.270Z,88.78
2024-02-08T06:58:25.486Z,88.83
2024-02-08T07:01:11.745Z,88.37
2024-02-08T07:03:58.095Z,88.34
2024-02-08T07:06:44.101Z,88.40
2024-02-08T07:09:30.370Z,88.34
2024-02-08T07:12:16.553Z,88.01
2024-02-08T07:15:02.526Z,87.86
2024-02-08T07:17:48.749Z,86.96
2024-02-08T07:20:34.855Z,86.57
2024-02-08T07:23:21.033Z,85.63
2024-02-08T07:26:07.292Z,85.66
2024-02-08T07:28:53.540Z,85.72
2024-02-08T07:31:39.536Z,84.77
2024-02-08T07:34:26.092Z,83.86
2024-02-08T07:37:12.382Z,83.67
2024-02-08T07:39:48.153Z,83.71
2024-02-08T07:42:21.917Z,83.56
2024-02-08T07:44:56.574Z,83.08
2024-02-08T07:47:26.835Z,82.49
2024-02-08T07:50:06.290Z,82.22
2024-02-08T07:52:57.232Z,82.20
2024-02-08T07:55:31.920Z,81.35
2024-02-08T07:57:59.713Z,81.35
2024-02-08T08:00:44.103Z,80.80
2024-02-08T08:03:17.707Z,80.52
2024-02-08T08:05:47.050Z,80.04
2024-02-08T08:08:27.589Z,79.47
2024-02-08T08:11:07.294Z,79.20
2024-02-08T08:13:51.955Z,79.98
2024-02-08T08:16:33.069Z,79.38
2024-02-08T08:19:26.131Z,78.96
2024-02-08T08:21:59.914Z,79.03
2024-02-08T08:24:28.344Z,79.17
2024-02-08T08:27:08.488Z,79.31
2024-02-08T08:29:46.033Z,78.65
2024-02-08T08:32:32.631Z,78.04
2024-02-08T08:35:19.846Z,78.22
2024-02-08T08:37:50.406Z,78.37
2024-02-08T08:40:47.541Z,78.42
2024-02-08T08:43:24.545Z,78.47
2024-02-08T08:46:01.291Z,77.74
2024-02-08T08:48:35.654Z,78.05
2024-02-08T08:51:13.787Z,78.00
2024-02-08T08:53:45.884Z,77.91
2024-02-08T08:56:14.254Z,77.54
2024-02-08T08:58:43.387Z,77.49
2024-02-08T09:01:23.995Z,77.72
2024-02-08T09:04:24.324Z,76.84
2024-02-08T09:06:52.137Z,77.34
2024-02-08T09:09:29.708Z,77.47
2024-02-08T09:12:00.591Z,77.19
2024-02-08T09:14:32.502Z,77.16
2024-02-08T09:17:23.477Z,76.99
2024-02-08T09:19:49.571Z,75.75
2024-02-08T09:22:19.761Z,75.98
2024-02-08T09:24:48.144Z,75.96
2024-02-08T09:27:20.906Z,75.66
2024-02-08T09:29:58.245Z,75.42
2024-02-08T09:32:45.034Z,75.53
2024-02-08T09:35:17.998Z,75.08
2024-02-08T09:37:50.145Z,74.63
2024-02-08T09:40:22.213Z,74.51
2024-02-08T09:42:58.054Z,74.26
2024-02-08T09:45:34.037Z,72.55
2024-02-08T09:48:08.323Z,72.67
2024-02-08T09:50:38.174Z,72.64
2024-02-08T09:53:19.946Z,72.01
2024-02-08T09:55:58.312Z,71.91
2024-02-08T09:58:42.931Z,72.44
2024-02-08T10:01:32.199Z,72.42
2024-02-08T10:04:07.821Z,72.01
2024-02-08T10:06:47.894Z,72.43
2024-02-08T10:09:35.339Z,71.95
2024-02-08T10:12:12.996Z,72.42
2024-02-08T10:14:44.120Z,72.42
2024-02-08T10:17:26.535Z,72.35
2024-02-08T10:20:15.263Z,71.88
2024-02-08T10:22:58.658Z,72.49
2024-02-08T10:25:45.537Z,72.73
2024-02-08T10:28:27.481Z,72.68
2024-02-08T10:31:14.255Z,72.46
2024-02-08T10:33:49.565Z,72.50
2024-02-08T10:36:22.232Z,72.54
2024-02-08T10:38:58.537Z,71.96
2024-02-08T10:41:40.455Z,71.87
2024-02-08T10:44:19.754Z,72.14
2024-02-08T10:46:50.803Z,72.30
2024-02-08T10:49:24.808Z,72.69
2024-02-08T10:52:02.576Z,72.34
2024-02-08T10:54:55.520Z,72.42
2024-02-08T10:57:41.693Z,72.28
2024-02-08T11:00:30.348Z,72.23
2024-02-08T11:03:10.258Z,70.86
2024-02-08T11:05:57.720Z,71.11
2024-02-08T11:08:26.436Z,70.64
2024-02-08T11:11:00.645Z,68.74
2024-02-08T11:13:39.494Z,68.03
2024-02-08T11:16:22.998Z,67.91
2024-02-08T11:18:54.833Z,68.68
2024-02-08T11:21:44.304Z,68.15
2024-02-08T11:24:30.349Z,68.11
2024-02-08T11:27:04.271Z,68.69
2024-02-08T11:29:48.676Z,67.73
2024-02-08T11:32:18.933Z,66.67
2024-02-08T11:34:47.849Z,67.17
2024-02-08T11:37:17.805Z,67.28
2024-02-08T11:39:49.045Z,66.48
2024-02-08T11:42:19.163Z,66.34
2024-02-08T11:44:47.852Z,66.55
2024-02-08T11:47:24.784Z,65.91
2024-02-08T11:50:02.823Z,65.92
2024-02-08T11:52:33.554Z,66.89
2024-02-08T11:55:11.924Z,66.98
2024-02-08T11:57:44.678Z,66.30
2024-02-08T12:00:19.876Z,65.54
2024-02-08T12:03:03.176Z,65.89
2024-02-08T12:05:32.048Z,66.61
2024-02-08T12:08:10.883Z,66.02
2024-02-08T12:10:40.321Z,67.07
2024-02-08T12:13:15.583Z,66.54
2024-02-08T12:15:57.917Z,66.12
2024-02-08T12:18:29.646Z,66.46
2024-02-08T12:21:01.797Z,66.52
2024-02-08T12:23:33.957Z,66.99
2024-02-08T12:26:05.777Z,66.72
2024-02-08T12:28:36.721Z,66.71
2024-02-08T12:31:05.270Z,66.59
2024-02-08T12:33:34.258Z,66.95
2024-02-08T12:36:02.168Z,67.24
2024-02-08T12:38:32.359Z,67.11
2024-02-08T12:41:07.979Z,67.77
2024-02-08T12:43:36.237Z,67.17
2024-02-08T12:46:03.806Z,67.00
2024-02-08T12:48:31.525Z,66.67
2024-02-08T12:51:05.111Z,66.67
2024-02-08T12:53:32.829Z,66.67
2024-02-08T12:56:07.800Z,67.40
2024-02-08T12:58:35.566Z,68.12
2024-02-08T13:01:07.196Z,68.59
2024-02-08T13:03:38.668Z,69.19
2024-02-08T13:06:13.320Z,69.17
2024-02-08T13:08:47.195Z,68.69
2024-02-08T13:11:23.928Z,69.11
2024-02-08T13:13:51.502Z,69.12
2024-02-08T13:16:19.069Z,69.41
2024-02-08T13:18:56.448Z,69.39
2024-02-08T13:21:26.609Z,69.29
2024-02-08T13:23:57.491Z,69.75
2024-02-08T13:26:33.147Z,69.84
2024-02-08T13:29:05.601Z,70.18
2024-02-08T13:31:33.369Z,70.62
2024-02-08T13:34:03.168Z,70.70
2024-02-08T13:36:30.935Z,70.74
2024-02-08T13:38:58.569Z,70.48
2024-02-08T13:41:26.224Z,70.84
2024-02-08T13:43:54.430Z,70.83
2024-02-08T13:46:23.582Z,71.11
2024-02-08T13:48:51.227Z,70.92
2024-02-08T13:51:18.913Z,70.75
2024-02-08T13:53:46.994Z,70.41
2024-02-08T13:56:15.267Z,70.64
2024-02-08T13:58:43.222Z,70.51
2024-02-08T14:01:13.247Z,70.96
2024-02-08T14:03:41.275Z,71.33
2024-02-08T14:06:11.470Z,71.71
2024-02-08T14:08:44.685Z,71.67
2024-02-08T14:11:18.164Z,71.34
2024-02-08T14:13:46.170Z,71.96
2024-02-08T14:16:17.935Z,71.91
2024-02-08T14:18:55.526Z,71.79
2024-02-08T14:21:27.814Z,72.05
2024-02-08T14:24:02.996Z,71.99
2024-02-08T14:26:38.974Z,71.63
2024-02-08T14:29:13.460Z,72.15
2024-02-08T14:31:43.741Z,72.62
2024-02-08T14:34:16.027Z,72.83
2024-02-08T14:36:52.759Z,73.09
2024-02-08T14:39:31.165Z,73.85
2024-02-08T14:42:19.352Z,73.78
2024-02-08T14:44:55.393Z,73.88
2024-02-08T14:47:23.750Z,74.13
2024-02-08T14:50:01.885Z,74.37
2024-02-08T14:52:46.480Z,74.93
2024-02-08T14:55:27.508Z,75.48
2024-02-08T14:58:01.197Z,75.83
2024-02-08T15:00:32.381Z,76.03
2024-02-08T15:03:12.567Z,76.23
2024-02-08T15:05:50.063Z,76.14
2024-02-08T15:08:24.426Z,76.16
2024-02-08T15:11:10.196Z,76.25
2024-02-08T15:13:56.088Z,76.63
2024-02-08T15:16:24.084Z,76.44
2024-02-08T15:18:55.640Z,76.67
2024-02-08T15:21:27.295Z,76.91
2024-02-08T15:24:09.672Z,76.97
2024-02-08T15:26:38.905Z,77.14
2024-02-08T15:29:06.793Z,77.13
2024-02-08T15:31:40.385Z,77.29
2024-02-08T15:34:14.232Z,77.32
2024-02-08T15:37:00.897Z,77.62
2024-02-08T15:39:48.755Z,77.55
2024-02-08T15:42:21.576Z,77.73
2024-02-08T15:44:54.544Z,77.71
2024-02-08T15:47:22.823Z,77.61
2024-02-08T15:49:56.177Z,77.74
2024-02-08T15:52:27.753Z,77.96
2024-02-08T15:55:00.648Z,77.99
2024-02-08T15:57:34.619Z,77.68
2024-02-08T16:00:22.909Z,77.82
2024-02-08T16:02:53.384Z,77.71
2024-02-08T16:05:23.650Z,77.99
2024-02-08T16:07:59.075Z,78.23
2024-02-08T16:10:33.560Z,78.02
2024-02-08T16:13:07.659Z,78.32
2024-02-08T16:15:57.788Z,78.14
2024-02-08T16:18:31.222Z,78.06
2024-02-08T16:21:00.798Z,78.40
2024-02-08T16:23:29.179Z,78.21
2024-02-08T16:26:23.502Z,78.12
2024-02-08T16:28:52.438Z,78.19
2024-02-08T16:31:20.219Z,78.03
2024-02-08T16:33:49.988Z,78.20
2024-02-08T16:36:28.865Z,78.53
2024-02-08T16:39:16.894Z,78.76
2024-02-08T16:41:50.442Z,79.20
2024-02-08T16:44:19.103Z,79.06
2024-02-08T16:46:59.461Z,79.05
2024-02-08T16:49:32.130Z,79.36
2024-02-08T16:52:05.981Z,79.06
2024-02-08T16:54:37.167Z,79.30
2024-02-08T16:57:08.783Z,79.41
2024-02-08T16:59:49.546Z,79.99
2024-02-08T17:02:26.219Z,79.79
2024-02-08T17:05:11.594Z,79.66
2024-02-08T17:07:45.761Z,79.44
2024-02-08T17:10:35.534Z,79.52
2024-02-08T17:13:38.795Z,79.14
2024-02-08T17:16:37.425Z,79.17
2024-02-08T17:19:25.273Z,79.42
2024-02-08T17:21:52.936Z,79.32
2024-02-08T17:24:43.535Z,79.08
2024-02-08T17:27:27.676Z,79.36
2024-02-08T17:30:05.751Z,79.20
2024-02-08T17:32:34.711Z,79.44
2024-02-08T17:35:02.637Z,79.30
2024-02-08T17:37:39.740Z,79.66
2024-02-08T17:40:20.873Z,79.30
2024-02-08T17:42:51.371Z,79.53
2024-02-08T17:45:21.602Z,79.60
2024-02-08T17:47:49.815Z,79.69
2024-02-08T17:50:31.238Z,79.50
2024-02-08T17:53:01.280Z,80.01
2024-02-08T17:55:37.904Z,79.86
2024-02-08T17:58:14.331Z,79.80
2024-02-08T18:00:43.704Z,80.13
2024-02-08T18:03:16.877Z,80.08
2024-02-08T18:05:49.221Z,80.09
2024-02-08T18:08:18.412Z,80.02
2024-02-08T18:10:47.822Z,80.54
2024-02-08T18:13:18.914Z,80.36
2024-02-08T18:15:52.381Z,80.44
2024-02-08T18:18:24.747Z,80.40
2024-02-08T18:20:59.829Z,80.59
2024-02-08T18:23:34.610Z,80.63
2024-02-08T18:26:05.535Z,80.92
2024-02-08T18:28:35.692Z,80.45
2024-02-08T18:31:07.803Z,80.58
2024-02-08T18:33:36.668Z,80.83
2024-02-08T18:36:06.716Z,80.72
2024-02-08T18:38:35.150Z,80.94
2024-02-08T18:41:03.219Z,81.01
2024-02-08T18:43:32.519Z,81.00
